- বাংলা English

 ****Phone:+880 2 9135742, 9123838, 9141437 | Fax: +880 2 8118230, 9119230, 9103908 | E-mail: info@bmd.gov.bd , swc@bmd.gov.bd   | IVR: 1090 |

METAR


VGHS  300200Z 24011KT 3500 HZ BKN009 BKN090 27/24 Q1007 TEMPO RA=